sensor_id;sensor_type;location;lat;lon;timestamp;pressure;altitude;pressure_sealevel;temperature;humidity
33454;BME280;39400;49.744;7.012;2023-01-29T00:02:11;97001.09;;;-2.68;100.00
33454;BME280;39400;49.744;7.012;2023-01-29T00:04:36;97010.75;;;-2.62;100.00
33454;BME280;39400;49.744;7.012;2023-01-29T00:07:01;97010.47;;;-2.95;100.00
33454;BME280;39400;49.744;7.012;2023-01-29T00:09:27;97013.75;;;-2.98;100.00
33454;BME280;39400;49.744;7.012;2023-01-29T00:11:52;97013.16;;;-2.95;100.00
33454;BME280;39400;49.744;7.012;2023-01-29T00:14:18;97010.50;;;-3.00;100.00
33454;BME280;39400;49.744;7.012;2023-01-29T00:16:43;97005.75;;;-3.13;100.00
33454;BME280;39400;49.744;7.012;2023-01-29T00:19:09;97003.59;;;-3.11;100.00
33454;BME280;39400;49.744;7.012;2023-01-29T00:21:34;97011.38;;;-3.09;100.00
33454;BME280;39400;49.744;7.012;2023-01-29T00:24:00;97017.88;;;-3.16;100.00
33454;BME280;39400;49.744;7.012;2023-01-29T00:26:26;97025.00;;;-2.96;100.00
33454;BME280;39400;49.744;7.012;2023-01-29T00:28:51;97022.31;;;-2.96;100.00
33454;BME280;39400;49.744;7.012;2023-01-29T00:31:22;97033.13;;;-3.01;100.00
33454;BME280;39400;49.744;7.012;2023-01-29T00:33:48;97028.66;;;-3.21;100.00
33454;BME280;39400;49.744;7.012;2023-01-29T00:36:15;97037.91;;;-2.93;100.00
33454;BME280;39400;49.744;7.012;2023-01-29T00:38:41;97046.03;;;-3.03;100.00
33454;BME280;39400;49.744;7.012;2023-01-29T00:41:12;97054.53;;;-2.85;100.00
33454;BME280;39400;49.744;7.012;2023-01-29T00:43:37;97056.25;;;-3.05;100.00
33454;BME280;39400;49.744;7.012;2023-01-29T00:46:03;97054.13;;;-3.03;100.00
33454;BME280;39400;49.744;7.012;2023-01-29T00:48:29;97055.72;;;-3.02;100.00
33454;BME280;39400;49.744;7.012;2023-01-29T00:50:55;97059.97;;;-2.96;100.00
33454;BME280;39400;49.744;7.012;2023-01-29T00:53:20;97064.44;;;-2.81;100.00
33454;BME280;39400;49.744;7.012;2023-01-29T00:55:45;97053.81;;;-3.01;100.00
33454;BME280;39400;49.744;7.012;2023-01-29T00:58:10;97055.16;;;-2.99;100.00
33454;BME280;39400;49.744;7.012;2023-01-29T01:00:36;97046.03;;;-3.03;100.00
33454;BME280;39400;49.744;7.012;2023-01-29T01:03:01;97045.25;;;-3.08;100.00
33454;BME280;39400;49.744;7.012;2023-01-29T01:05:27;97053.56;;;-3.00;100.00
33454;BME280;39400;49.744;7.012;2023-01-29T01:07:54;97044.81;;;-2.81;100.00
33454;BME280;39400;49.744;7.012;2023-01-29T01:10:26;97041.00;;;-3.15;100.00
33454;BME280;39400;49.744;7.012;2023-01-29T01:12:57;97039.88;;;-3.08;100.00
33454;BME280;39400;49.744;7.012;2023-01-29T01:15:27;97033.00;;;-2.85;100.00
33454;BME280;39400;49.744;7.012;2023-01-29T01:17:54;97029.13;;;-3.08;100.00
33454;BME280;39400;49.744;7.012;2023-01-29T01:20:20;97020.97;;;-2.98;100.00
33454;BME280;39400;49.744;7.012;2023-01-29T01:22:46;97020.81;;;-3.12;100.00
33454;BME280;39400;49.744;7.012;2023-01-29T01:25:11;97008.94;;;-3.06;100.00
33454;BME280;39400;49.744;7.012;2023-01-29T01:27:36;97006.88;;;-3.19;100.00
33454;BME280;39400;49.744;7.012;2023-01-29T01:30:03;96996.13;;;-2.85;100.00
33454;BME280;39400;49.744;7.012;2023-01-29T01:32:28;97001.53;;;-3.24;100.00
33454;BME280;39400;49.744;7.012;2023-01-29T01:34:54;96997.19;;;-3.15;100.00
33454;BME280;39400;49.744;7.012;2023-01-29T01:37:19;96994.84;;;-2.93;100.00
33454;BME280;39400;49.744;7.012;2023-01-29T01:39:45;96992.22;;;-2.98;100.00
33454;BME280;39400;49.744;7.012;2023-01-29T01:42:13;96991.69;;;-3.00;100.00
33454;BME280;39400;49.744;7.012;2023-01-29T01:44:54;96992.22;;;-2.98;100.00
33454;BME280;39400;49.744;7.012;2023-01-29T01:47:28;96986.72;;;-2.88;100.00
33454;BME280;39400;49.744;7.012;2023-01-29T01:49:56;96979.00;;;-2.94;100.00
33454;BME280;39400;49.744;7.012;2023-01-29T01:52:23;96980.63;;;-3.32;100.00
33454;BME280;39400;49.744;7.012;2023-01-29T01:54:49;96986.44;;;-3.15;100.00
33454;BME280;39400;49.744;7.012;2023-01-29T01:57:17;96984.44;;;-3.44;100.00
33454;BME280;39400;49.744;7.012;2023-01-29T01:59:48;96988.75;;;-3.48;100.00
33454;BME280;39400;49.744;7.012;2023-01-29T02:02:16;96982.41;;;-3.62;100.00
33454;BME280;39400;49.744;7.012;2023-01-29T02:04:45;96982.91;;;-3.55;100.00
33454;BME280;39400;49.744;7.012;2023-01-29T02:07:13;96973.09;;;-3.80;100.00
33454;BME280;39400;49.744;7.012;2023-01-29T02:10:04;96966.56;;;-3.69;100.00
33454;BME280;39400;49.744;7.012;2023-01-29T02:12:32;96973.03;;;-3.70;100.00
33454;BME280;39400;49.744;7.012;2023-01-29T02:14:58;96973.00;;;-3.65;100.00
33454;BME280;39400;49.744;7.012;2023-01-29T02:17:24;96962.66;;;-3.92;100.00
33454;BME280;39400;49.744;7.012;2023-01-29T02:19:52;96956.38;;;-3.72;100.00
33454;BME280;39400;49.744;7.012;2023-01-29T02:31:03;96964.81;;;-3.99;100.00
33454;BME280;39400;49.744;7.012;2023-01-29T02:39:56;96985.50;;;-3.99;100.00
33454;BME280;39400;49.744;7.012;2023-01-29T02:42:35;96993.34;;;-4.08;100.00
33454;BME280;39400;49.744;7.012;2023-01-29T02:45:05;96992.16;;;-3.76;100.00
33454;BME280;39400;49.744;7.012;2023-01-29T02:47:40;97001.91;;;-4.01;100.00
33454;BME280;39400;49.744;7.012;2023-01-29T02:50:27;97014.81;;;-4.13;100.00
33454;BME280;39400;49.744;7.012;2023-01-29T02:53:35;97008.34;;;-3.97;100.00
33454;BME280;39400;49.744;7.012;2023-01-29T02:56:09;96974.53;;;-4.08;100.00
33454;BME280;39400;49.744;7.012;2023-01-29T02:58:41;97008.81;;;-3.85;100.00
33454;BME280;39400;49.744;7.012;2023-01-29T03:01:15;97006.13;;;-3.85;100.00
33454;BME280;39400;49.744;7.012;2023-01-29T03:03:47;96988.09;;;-3.74;100.00
33454;BME280;39400;49.744;7.012;2023-01-29T03:06:21;96992.59;;;-3.59;100.00
33454;BME280;39400;49.744;7.012;2023-01-29T03:08:52;96991.13;;;-3.96;100.00
33454;BME280;39400;49.744;7.012;2023-01-29T03:11:20;96987.28;;;-3.74;100.00
33454;BME280;39400;49.744;7.012;2023-01-29T03:13:49;96983.56;;;-3.84;100.00
33454;BME280;39400;49.744;7.012;2023-01-29T03:16:25;96979.25;;;-3.85;100.00
33454;BME280;39400;49.744;7.012;2023-01-29T03:18:59;96985.84;;;-4.11;100.00
33454;BME280;39400;49.744;7.012;2023-01-29T03:21:37;96984.59;;;-3.74;100.00
33454;BME280;39400;49.744;7.012;2023-01-29T03:24:05;96977.13;;;-3.83;100.00
33454;BME280;39400;49.744;7.012;2023-01-29T03:26:33;96970.47;;;-4.00;100.00
33454;BME280;39400;49.744;7.012;2023-01-29T03:28:59;96973.34;;;-3.76;100.00
33454;BME280;39400;49.744;7.012;2023-01-29T03:31:26;96973.88;;;-3.79;100.00
33454;BME280;39400;49.744;7.012;2023-01-29T03:34:13;96976.53;;;-3.74;100.00
33454;BME280;39400;49.744;7.012;2023-01-29T03:36:42;96974.97;;;-3.86;100.00
33454;BME280;39400;49.744;7.012;2023-01-29T03:39:12;96968.78;;;-3.81;100.00
33454;BME280;39400;49.744;7.012;2023-01-29T03:42:01;96965.88;;;-3.90;100.00
33454;BME280;39400;49.744;7.012;2023-01-29T03:44:31;96964.72;;;-3.73;100.00
33454;BME280;39400;49.744;7.012;2023-01-29T03:47:11;96977.75;;;-4.06;100.00
33454;BME280;39400;49.744;7.012;2023-01-29T03:52:34;96985.88;;;-4.32;100.00
33454;BME280;39400;49.744;7.012;2023-01-29T03:55:16;96985.59;;;-4.25;100.00
33454;BME280;39400;49.744;7.012;2023-01-29T04:00:26;96985.75;;;-3.91;100.00
33454;BME280;39400;49.744;7.012;2023-01-29T04:05:39;96970.75;;;-3.97;100.00
33454;BME280;39400;49.744;7.012;2023-01-29T04:08:18;96969.25;;;-4.28;100.00
33454;BME280;39400;49.744;7.012;2023-01-29T04:10:46;96969.69;;;-4.06;100.00
33454;BME280;39400;49.744;7.012;2023-01-29T04:13:14;96975.09;;;-4.11;100.00
33454;BME280;39400;49.744;7.012;2023-01-29T04:15:48;96983.63;;;-3.99;100.00
33454;BME280;39400;49.744;7.012;2023-01-29T04:18:16;96980.53;;;-4.32;100.00
33454;BME280;39400;49.744;7.012;2023-01-29T04:21:02;96983.72;;;-4.30;100.00
33454;BME280;39400;49.744;7.012;2023-01-29T04:23:28;96980.16;;;-4.04;100.00
33454;BME280;39400;49.744;7.012;2023-01-29T04:29:00;96987.31;;;-3.79;100.00
33454;BME280;39400;49.744;7.012;2023-01-29T04:31:34;96999.22;;;-4.01;100.00
33454;BME280;39400;49.744;7.012;2023-01-29T04:34:26;96998.72;;;-4.13;100.00
33454;BME280;39400;49.744;7.012;2023-01-29T04:37:15;96996.03;;;-4.13;100.00
33454;BME280;39400;49.744;7.012;2023-01-29T04:40:24;96996.06;;;-4.23;100.00
33454;BME280;39400;49.744;7.012;2023-01-29T04:50:38;97004.63;;;-4.16;100.00
33454;BME280;39400;49.744;7.012;2023-01-29T04:53:17;97004.84;;;-4.02;100.00
33454;BME280;39400;49.744;7.012;2023-01-29T04:55:50;96999.16;;;-3.80;100.00
33454;BME280;39400;49.744;7.012;2023-01-29T04:58:27;96990.00;;;-3.85;100.00
33454;BME280;39400;49.744;7.012;2023-01-29T05:00:56;96985.59;;;-4.25;100.00
33454;BME280;39400;49.744;7.012;2023-01-29T05:03:25;96987.38;;;-3.90;100.00
33454;BME280;39400;49.744;7.012;2023-01-29T05:05:53;96982.53;;;-3.93;100.00
33454;BME280;39400;49.744;7.012;2023-01-29T05:08:21;96993.34;;;-4.13;100.00
33454;BME280;39400;49.744;7.012;2023-01-29T05:10:49;96988.53;;;-4.11;100.00
33454;BME280;39400;49.744;7.012;2023-01-29T05:13:17;96987.31;;;-3.85;100.00
33454;BME280;39400;49.744;7.012;2023-01-29T05:15:47;96992.19;;;-3.92;100.00
33454;BME280;39400;49.744;7.012;2023-01-29T05:18:14;96980.38;;;-3.91;100.00
33454;BME280;39400;49.744;7.012;2023-01-29T05:20:42;96976.03;;;-3.76;100.00
33454;BME280;39400;49.744;7.012;2023-01-29T05:23:18;96963.72;;;-3.88;100.00
33454;BME280;39400;49.744;7.012;2023-01-29T05:25:44;96957.31;;;-4.02;100.00
33454;BME280;39400;49.744;7.012;2023-01-29T05:28:10;96947.66;;;-4.03;100.00
33454;BME280;39400;49.744;7.012;2023-01-29T05:30:37;96945.53;;;-4.06;100.00
33454;BME280;39400;49.744;7.012;2023-01-29T05:33:08;96953.13;;;-4.28;100.00
33454;BME280;39400;49.744;7.012;2023-01-29T05:35:35;96947.25;;;-4.36;100.00
33454;BME280;39400;49.744;7.012;2023-01-29T05:38:02;96943.25;;;-4.48;100.00
33454;BME280;39400;49.744;7.012;2023-01-29T05:40:27;96932.22;;;-4.42;100.00
33454;BME280;39400;49.744;7.012;2023-01-29T05:42:52;96929.34;;;-4.66;100.00
33454;BME280;39400;49.744;7.012;2023-01-29T05:45:18;96924.25;;;-4.57;100.00
33454;BME280;39400;49.744;7.012;2023-01-29T05:47:44;96932.25;;;-4.52;100.00
33454;BME280;39400;49.744;7.012;2023-01-29T05:50:10;96933.88;;;-4.61;100.00
33454;BME280;39400;49.744;7.012;2023-01-29T05:52:35;96940.63;;;-4.74;100.00
33454;BME280;39400;49.744;7.012;2023-01-29T05:55:01;96942.22;;;-4.73;100.00
33454;BME280;39400;49.744;7.012;2023-01-29T05:57:26;96943.00;;;-4.62;100.00
33454;BME280;39400;49.744;7.012;2023-01-29T05:59:51;96957.00;;;-4.70;100.00
33454;BME280;39400;49.744;7.012;2023-01-29T06:02:17;96964.19;;;-4.56;100.00
33454;BME280;39400;49.744;7.012;2023-01-29T06:04:42;96960.09;;;-4.27;100.00
33454;BME280;39400;49.744;7.012;2023-01-29T06:07:07;96978.31;;;-4.19;100.00
33454;BME280;39400;49.744;7.012;2023-01-29T06:09:33;96983.13;;;-4.06;100.00
33454;BME280;39400;49.744;7.012;2023-01-29T06:11:58;96992.34;;;-4.48;100.00
33454;BME280;39400;49.744;7.012;2023-01-29T06:14:24;96986.94;;;-4.22;100.00
33454;BME280;39400;49.744;7.012;2023-01-29T06:16:49;96992.81;;;-4.05;100.00
33454;BME280;39400;49.744;7.012;2023-01-29T06:19:14;96996.31;;;-4.15;100.00
33454;BME280;39400;49.744;7.012;2023-01-29T06:21:40;96994.97;;;-4.17;100.00
33454;BME280;39400;49.744;7.012;2023-01-29T06:24:05;96990.75;;;-4.49;100.00
33454;BME280;39400;49.744;7.012;2023-01-29T06:26:31;96984.59;;;-4.55;100.00
33454;BME280;39400;49.744;7.012;2023-01-29T06:28:56;96969.34;;;-4.80;100.00
33454;BME280;39400;49.744;7.012;2023-01-29T06:31:22;96961.31;;;-4.85;100.00
33454;BME280;39400;49.744;7.012;2023-01-29T06:33:47;96950.00;;;-4.82;100.00
33454;BME280;39400;49.744;7.012;2023-01-29T06:36:12;96954.59;;;-4.77;100.00
33454;BME280;39400;49.744;7.012;2023-01-29T06:38:38;96959.91;;;-4.51;100.00
33454;BME280;39400;49.744;7.012;2023-01-29T06:41:08;96949.69;;;-4.55;100.00
33454;BME280;39400;49.744;7.012;2023-01-29T06:43:33;96954.84;;;-4.99;100.00
33454;BME280;39400;49.744;7.012;2023-01-29T06:45:59;96960.22;;;-4.99;100.00
33454;BME280;39400;49.744;7.012;2023-01-29T06:48:24;96967.22;;;-4.88;100.00
33454;BME280;39400;49.744;7.012;2023-01-29T06:50:50;96961.31;;;-4.85;100.00
33454;BME280;39400;49.744;7.012;2023-01-29T06:53:16;96957.00;;;-4.91;100.00
33454;BME280;39400;49.744;7.012;2023-01-29T06:55:42;96958.03;;;-4.71;100.00
33454;BME280;39400;49.744;7.012;2023-01-29T06:58:10;96952.69;;;-4.66;100.00
33454;BME280;39400;49.744;7.012;2023-01-29T07:00:36;96946.78;;;-4.79;100.00
33454;BME280;39400;49.744;7.012;2023-01-29T07:03:02;96946.25;;;-4.70;100.00
33454;BME280;39400;49.744;7.012;2023-01-29T07:05:28;96952.16;;;-4.73;100.00
33454;BME280;39400;49.744;7.012;2023-01-29T07:07:53;96957.00;;;-4.70;100.00
33454;BME280;39400;49.744;7.012;2023-01-29T07:10:19;96957.00;;;-4.70;100.00
33454;BME280;39400;49.744;7.012;2023-01-29T07:12:44;96942.78;;;-4.81;100.00
33454;BME280;39400;49.744;7.012;2023-01-29T07:15:10;96944.13;;;-4.84;100.00
33454;BME280;39400;49.744;7.012;2023-01-29T07:17:35;96946.81;;;-4.89;100.00
33454;BME280;39400;49.744;7.012;2023-01-29T07:20:01;96955.13;;;-5.31;100.00
33454;BME280;39400;49.744;7.012;2023-01-29T07:22:26;96956.44;;;-5.49;100.00
33454;BME280;39400;49.744;7.012;2023-01-29T07:24:51;96964.78;;;-5.30;100.00
33454;BME280;39400;49.744;7.012;2023-01-29T07:27:16;96967.19;;;-5.03;100.00
33454;BME280;39400;49.744;7.012;2023-01-29T07:29:42;96963.72;;;-5.09;100.00
33454;BME280;39400;49.744;7.012;2023-01-29T07:32:07;96973.09;;;-5.11;100.00
33454;BME280;39400;49.744;7.012;2023-01-29T07:34:33;96993.44;;;-5.31;100.00
33454;BME280;39400;49.744;7.012;2023-01-29T07:36:58;96998.03;;;-5.16;100.00
33454;BME280;39400;49.744;7.012;2023-01-29T07:39:24;97007.97;;;-5.01;100.00
33454;BME280;39400;49.744;7.012;2023-01-29T07:41:49;97016.81;;;-5.00;100.00
33454;BME280;39400;49.744;7.012;2023-01-29T07:44:15;97012.78;;;-5.03;100.00
33454;BME280;39400;49.744;7.012;2023-01-29T07:46:40;97008.25;;;-4.77;100.00
33454;BME280;39400;49.744;7.012;2023-01-29T07:49:06;97004.75;;;-4.88;100.00
33454;BME280;39400;49.744;7.012;2023-01-29T07:51:32;96995.63;;;-4.87;100.00
33454;BME280;39400;49.744;7.012;2023-01-29T07:53:57;96999.38;;;-4.88;100.00
33454;BME280;39400;49.744;7.012;2023-01-29T07:56:22;96999.63;;;-4.89;100.00
33454;BME280;39400;49.744;7.012;2023-01-29T07:58:48;97003.13;;;-4.89;100.00
33454;BME280;39400;49.744;7.012;2023-01-29T08:01:13;96998.28;;;-4.61;100.00
33454;BME280;39400;49.744;7.012;2023-01-29T08:03:38;97002.06;;;-4.57;100.00
33454;BME280;39400;49.744;7.012;2023-01-29T08:06:04;96997.22;;;-4.75;100.00
33454;BME280;39400;49.744;7.012;2023-01-29T08:08:29;96998.53;;;-4.58;100.00
33454;BME280;39400;49.744;7.012;2023-01-29T08:10:55;96985.41;;;-4.49;100.00
33454;BME280;39400;49.744;7.012;2023-01-29T08:13:20;96979.50;;;-4.46;100.00
33454;BME280;39400;49.744;7.012;2023-01-29T08:15:45;96976.00;;;-4.62;100.00
33454;BME280;39400;49.744;7.012;2023-01-29T08:18:12;96983.19;;;-4.37;100.00
33454;BME280;39400;49.744;7.012;2023-01-29T08:20:37;96982.66;;;-4.34;100.00
33454;BME280;39400;49.744;7.012;2023-01-29T08:23:05;96972.97;;;-4.30;100.00
33454;BME280;39400;49.744;7.012;2023-01-29T08:25:31;96973.06;;;-4.50;100.00
33454;BME280;39400;49.744;7.012;2023-01-29T08:27:58;96974.13;;;-4.56;100.00
33454;BME280;39400;49.744;7.012;2023-01-29T08:30:26;96967.34;;;-4.33;100.00
33454;BME280;39400;49.744;7.012;2023-01-29T08:32:51;96954.94;;;-4.14;100.00
33454;BME280;39400;49.744;7.012;2023-01-29T08:35:17;96963.84;;;-4.18;100.00
33454;BME280;39400;49.744;7.012;2023-01-29T08:37:42;96967.16;;;-4.57;100.00
33454;BME280;39400;49.744;7.012;2023-01-29T08:40:08;96985.97;;;-4.67;100.00
33454;BME280;39400;49.744;7.012;2023-01-29T08:42:33;96984.31;;;-4.58;100.00
33454;BME280;39400;49.744;7.012;2023-01-29T08:44:59;97003.91;;;-4.58;100.00
33454;BME280;39400;49.744;7.012;2023-01-29T08:47:24;97009.00;;;-4.46;100.00
33454;BME280;39400;49.744;7.012;2023-01-29T08:49:49;97009.47;;;-4.13;100.00
33454;BME280;39400;49.744;7.012;2023-01-29T08:52:15;97018.31;;;-4.08;100.00
33454;BME280;39400;49.744;7.012;2023-01-29T08:54:40;97031.34;;;-3.75;100.00
33454;BME280;39400;49.744;7.012;2023-01-29T08:57:05;97029.06;;;-3.43;100.00
33454;BME280;39400;49.744;7.012;2023-01-29T08:59:31;97027.03;;;-3.17;100.00
33454;BME280;39400;49.744;7.012;2023-01-29T09:01:59;97012.03;;;-2.89;100.00
33454;BME280;39400;49.744;7.012;2023-01-29T09:04:24;97013.91;;;-2.84;100.00
33454;BME280;39400;49.744;7.012;2023-01-29T09:06:50;97008.16;;;-2.72;100.00
33454;BME280;39400;49.744;7.012;2023-01-29T09:09:15;97008.66;;;-2.70;100.00
33454;BME280;39400;49.744;7.012;2023-01-29T09:11:40;97004.91;;;-2.74;100.00
33454;BME280;39400;49.744;7.012;2023-01-29T09:14:06;97000.78;;;-2.91;100.00
33454;BME280;39400;49.744;7.012;2023-01-29T09:16:31;97004.03;;;-3.38;100.00
33454;BME280;39400;49.744;7.012;2023-01-29T09:18:57;96999.13;;;-3.75;100.00
33454;BME280;39400;49.744;7.012;2023-01-29T09:21:22;97004.41;;;-3.55;100.00
33454;BME280;39400;49.744;7.012;2023-01-29T09:23:47;97012.50;;;-3.60;100.00
33454;BME280;39400;49.744;7.012;2023-01-29T09:26:13;97016.84;;;-3.69;100.00
33454;BME280;39400;49.744;7.012;2023-01-29T09:28:38;97001.81;;;-3.75;100.00
33454;BME280;39400;49.744;7.012;2023-01-29T09:31:03;97009.03;;;-3.66;100.00
33454;BME280;39400;49.744;7.012;2023-01-29T09:33:29;97010.41;;;-3.78;100.00
33454;BME280;39400;49.744;7.012;2023-01-29T09:35:54;97016.34;;;-3.82;100.00
33454;BME280;39400;49.744;7.012;2023-01-29T09:38:19;97022.47;;;-3.71;100.00
33454;BME280;39400;49.744;7.012;2023-01-29T09:43:45;97021.44;;;-3.85;100.00
33454;BME280;39400;49.744;7.012;2023-01-29T09:46:22;97007.56;;;-3.43;100.00
33454;BME280;39400;49.744;7.012;2023-01-29T09:48:56;97018.09;;;-3.07;100.00
33454;BME280;39400;49.744;7.012;2023-01-29T09:51:28;97011.66;;;-3.11;100.00
33454;BME280;39400;49.744;7.012;2023-01-29T09:54:09;97010.81;;;-3.46;100.00
33454;BME280;39400;49.744;7.012;2023-01-29T09:56:38;97019.13;;;-3.47;100.00
33454;BME280;39400;49.744;7.012;2023-01-29T09:59:06;97021.47;;;-3.30;100.00
33454;BME280;39400;49.744;7.012;2023-01-29T10:15:35;97031.94;;;-2.21;100.00
33454;BME280;39400;49.744;7.012;2023-01-29T10:21:29;97038.38;;;-2.22;100.00
33454;BME280;39400;49.744;7.012;2023-01-29T10:26:30;97022.75;;;-2.20;100.00
33454;BME280;39400;49.744;7.012;2023-01-29T10:28:57;97017.56;;;-2.41;100.00
33454;BME280;39400;49.744;7.012;2023-01-29T10:31:29;96997.84;;;-2.65;100.00
33454;BME280;39400;49.744;7.012;2023-01-29T10:34:01;96987.75;;;-2.49;100.00
33454;BME280;39400;49.744;7.012;2023-01-29T10:36:48;96984.47;;;-2.46;100.00
33454;BME280;39400;49.744;7.012;2023-01-29T10:39:22;96969.19;;;-2.51;100.00
33454;BME280;39400;49.744;7.012;2023-01-29T10:42:14;96974.56;;;-2.51;100.00
33454;BME280;39400;49.744;7.012;2023-01-29T10:53:08;96971.16;;;-2.32;100.00
33454;BME280;39400;49.744;7.012;2023-01-29T10:55:45;96956.81;;;-2.52;100.00
33454;BME280;39400;49.744;7.012;2023-01-29T10:58:25;96946.19;;;-2.14;100.00
33454;BME280;39400;49.744;7.012;2023-01-29T11:00:53;96938.75;;;-1.79;100.00
33454;BME280;39400;49.744;7.012;2023-01-29T11:03:26;96928.91;;;-1.70;100.00
33454;BME280;39400;49.744;7.012;2023-01-29T11:08:24;96916.00;;;-1.92;100.00
33454;BME280;39400;49.744;7.012;2023-01-29T11:11:02;96913.81;;;-1.90;100.00
33454;BME280;39400;49.744;7.012;2023-01-29T11:13:37;96914.31;;;-2.07;100.00
33454;BME280;39400;49.744;7.012;2023-01-29T11:16:05;96905.47;;;-2.36;100.00
33454;BME280;39400;49.744;7.012;2023-01-29T11:19:10;96902.47;;;-1.87;100.00
33454;BME280;39400;49.744;7.012;2023-01-29T11:21:55;96897.44;;;-1.94;100.00
33454;BME280;39400;49.744;7.012;2023-01-29T11:24:21;96887.97;;;-1.72;100.00
33454;BME280;39400;49.744;7.012;2023-01-29T11:26:48;96892.00;;;-2.36;100.00
33454;BME280;39400;49.744;7.012;2023-01-29T11:31:59;96892.31;;;-2.38;100.00
33454;BME280;39400;49.744;7.012;2023-01-29T11:34:25;96883.00;;;-2.03;100.00
33454;BME280;39400;49.744;7.012;2023-01-29T11:36:58;96884.31;;;-1.44;100.00
33454;BME280;39400;49.744;7.012;2023-01-29T11:39:25;96878.34;;;-1.40;100.00
33454;BME280;39400;49.744;7.012;2023-01-29T11:42:02;96875.47;;;-0.98;100.00
33454;BME280;39400;49.744;7.012;2023-01-29T11:44:40;96884.47;;;-1.02;100.00
33454;BME280;39400;49.744;7.012;2023-01-29T11:49:38;96879.78;;;-1.29;100.00
33454;BME280;39400;49.744;7.012;2023-01-29T11:52:08;96872.03;;;-1.17;100.00
33454;BME280;39400;49.744;7.012;2023-01-29T11:55:00;96871.28;;;-1.04;100.00
33454;BME280;39400;49.744;7.012;2023-01-29T11:57:34;96868.50;;;0.12;100.00
33454;BME280;39400;49.744;7.012;2023-01-29T12:00:26;96873.53;;;-0.51;100.00
33454;BME280;39400;49.744;7.012;2023-01-29T12:02:56;96877.34;;;-0.52;100.00
33454;BME280;39400;49.744;7.012;2023-01-29T12:05:25;96876.25;;;-0.51;100.00
33454;BME280;39400;49.744;7.012;2023-01-29T12:08:01;96872.22;;;-0.67;100.00
33454;BME280;39400;49.744;7.012;2023-01-29T12:15:40;96863.84;;;-1.63;100.00
33454;BME280;39400;49.744;7.012;2023-01-29T12:18:34;96859.44;;;-1.40;100.00
33454;BME280;39400;49.744;7.012;2023-01-29T12:21:02;96856.75;;;-1.40;100.00
33454;BME280;39400;49.744;7.012;2023-01-29T12:26:24;96858.19;;;-1.29;100.00
33454;BME280;39400;49.744;7.012;2023-01-29T12:34:54;96836.53;;;-0.64;100.00
33454;BME280;39400;49.744;7.012;2023-01-29T12:40:14;96825.59;;;0.33;100.00
33454;BME280;39400;49.744;7.012;2023-01-29T12:42:43;96824.88;;;0.05;100.00
33454;BME280;39400;49.744;7.012;2023-01-29T12:45:21;96823.53;;;0.16;100.00
33454;BME280;39400;49.744;7.012;2023-01-29T12:47:51;96810.47;;;-0.05;100.00
33454;BME280;39400;49.744;7.012;2023-01-29T12:50:26;96798.72;;;0.36;100.00
33454;BME280;39400;49.744;7.012;2023-01-29T12:53:18;96797.44;;;-0.03;100.00
33454;BME280;39400;49.744;7.012;2023-01-29T12:55:52;96793.97;;;0.64;100.00
33454;BME280;39400;49.744;7.012;2023-01-29T12:58:22;96794.53;;;0.75;100.00
33454;BME280;39400;49.744;7.012;2023-01-29T13:00:53;96787.78;;;0.64;100.00
33454;BME280;39400;49.744;7.012;2023-01-29T13:06:01;96782.41;;;1.43;100.00
33454;BME280;39400;49.744;7.012;2023-01-29T13:09:00;96781.94;;;1.02;100.00
33454;BME280;39400;49.744;7.012;2023-01-29T13:14:19;96778.88;;;1.34;100.00
33454;BME280;39400;49.744;7.012;2023-01-29T13:16:49;96780.06;;;1.51;100.00
33454;BME280;39400;49.744;7.012;2023-01-29T13:19:24;96785.81;;;1.49;100.00
33454;BME280;39400;49.744;7.012;2023-01-29T13:21:54;96791.59;;;1.82;100.00
33454;BME280;39400;49.744;7.012;2023-01-29T13:24:23;96791.94;;;1.81;100.00
33454;BME280;39400;49.744;7.012;2023-01-29T13:26:50;96794.03;;;2.27;100.00
33454;BME280;39400;49.744;7.012;2023-01-29T13:29:23;96788.47;;;2.50;100.00
33454;BME280;39400;49.744;7.012;2023-01-29T13:31:51;96779.94;;;1.73;100.00
33454;BME280;39400;49.744;7.012;2023-01-29T13:34:22;96778.69;;;1.97;100.00
33454;BME280;39400;49.744;7.012;2023-01-29T13:36:54;96784.72;;;1.67;100.00
33454;BME280;39400;49.744;7.012;2023-01-29T13:41:51;96769.81;;;1.39;100.00
33454;BME280;39400;49.744;7.012;2023-01-29T13:44:21;96764.28;;;0.73;100.00
33454;BME280;39400;49.744;7.012;2023-01-29T13:46:59;96753.53;;;0.90;100.00
33454;BME280;39400;49.744;7.012;2023-01-29T13:49:32;96756.66;;;0.30;100.00
33454;BME280;39400;49.744;7.012;2023-01-29T13:52:35;96751.81;;;0.41;100.00
33454;BME280;39400;49.744;7.012;2023-01-29T14:10:26;96754.47;;;5.91;74.26
33454;BME280;39400;49.744;7.012;2023-01-29T14:13:38;96743.34;;;5.22;76.50
33454;BME280;39400;49.744;7.012;2023-01-29T14:15:38;96730.44;;;5.44;80.43
33454;BME280;39400;49.744;7.012;2023-01-29T14:23:07;96731.38;;;2.84;86.05
33454;BME280;39400;49.744;7.012;2023-01-29T14:25:43;96733.81;;;2.69;86.52
33454;BME280;39400;49.744;7.012;2023-01-29T14:28:17;96722.06;;;2.04;93.15
33454;BME280;39400;49.744;7.012;2023-01-29T14:30:46;96716.97;;;1.94;95.35
33454;BME280;39400;49.744;7.012;2023-01-29T14:33:24;96711.47;;;1.41;98.88
33454;BME280;39400;49.744;7.012;2023-01-29T14:35:51;96708.25;;;1.22;100.00
33454;BME280;39400;49.744;7.012;2023-01-29T14:38:17;96709.81;;;1.98;97.59
33454;BME280;39400;49.744;7.012;2023-01-29T14:40:45;96702.75;;;3.25;94.30
33454;BME280;39400;49.744;7.012;2023-01-29T14:43:18;96701.69;;;2.79;89.49
33454;BME280;39400;49.744;7.012;2023-01-29T14:45:44;96710.13;;;2.05;93.70
33454;BME280;39400;49.744;7.012;2023-01-29T14:50:40;96713.47;;;1.10;100.00
33454;BME280;39400;49.744;7.012;2023-01-29T14:53:23;96702.31;;;2.12;98.32
33454;BME280;39400;49.744;7.012;2023-01-29T14:56:04;96705.31;;;1.67;93.94
33454;BME280;39400;49.744;7.012;2023-01-29T15:01:05;96711.69;;;1.71;96.32
33454;BME280;39400;49.744;7.012;2023-01-29T15:04:05;96703.34;;;1.41;99.57
33454;BME280;39400;49.744;7.012;2023-01-29T15:06:51;96712.47;;;2.50;96.58
33454;BME280;39400;49.744;7.012;2023-01-29T15:09:30;96700.84;;;2.06;95.93
33454;BME280;39400;49.744;7.012;2023-01-29T15:14:46;96697.78;;;0.89;100.00